Time;durP1;ratioP1;P1;durP2;ratioP2;P2;SDS_P1;SDS_P2;PMS_P1;PMS_P2;Temp;Humidity;BMP_temperature;BMP_pressure;BME280_temperature;BME280_humidity;BME280_pressure;Samples;Min_cycle;Max_cycle;Signal;HPM_P1;HPM_P2
2022/07/16 00:01:59;;;;;;;0.70;0.60;;;;;;;;;;5073983;28;20427;-80
2022/07/16 00:04:26;;;;;;;0.80;0.70;;;;;;;;;;5074011;28;20504;-80
2022/07/16 00:06:53;;;;;;;0.80;0.80;;;;;;;;;;5073234;28;20463;-80
2022/07/16 00:09:20;;;;;;;0.70;0.60;;;;;;;;;;5073747;28;20462;-81
2022/07/16 00:11:47;;;;;;;0.70;0.60;;;;;;;;;;5074453;28;20460;-81
2022/07/16 00:14:14;;;;;;;0.70;0.60;;;;;;;;;;5072486;28;20865;-79
2022/07/16 00:16:41;;;;;;;0.70;0.60;;;;;;;;;;5063496;28;20546;-79
2022/07/16 00:19:15;;;;;;;0.70;0.60;;;;;;;;;;5054239;28;20777;-80
2022/07/16 00:21:43;;;;;;;0.70;0.60;;;;;;;;;;5053744;28;20447;-80
2022/07/16 00:24:09;;;;;;;0.70;0.60;;;;;;;;;;5055368;28;20935;-80
2022/07/16 00:26:38;;;;;;;0.70;0.70;;;;;;;;;;5057730;28;20850;-80
2022/07/16 00:29:06;;;;;;;0.83;0.80;;;;;;;;;;5047077;28;20831;-80
2022/07/16 00:31:32;;;;;;;0.80;0.70;;;;;;;;;;5059352;28;20442;-81
2022/07/16 00:33:59;;;;;;;0.70;0.60;;;;;;;;;;5064583;28;20443;-81
2022/07/16 00:36:27;;;;;;;0.70;0.60;;;;;;;;;;5073441;28;20516;-81
2022/07/16 00:38:54;;;;;;;0.70;0.60;;;;;;;;;;5061271;28;20474;-80
2022/07/16 00:41:21;;;;;;;0.80;0.77;;;;;;;;;;5051753;28;20467;-80
2022/07/16 00:43:52;;;;;;;0.70;0.60;;;;;;;;;;5052561;28;20469;-80
2022/07/16 00:46:19;;;;;;;0.70;0.60;;;;;;;;;;5061249;28;20477;-79
2022/07/16 00:48:46;;;;;;;0.70;0.60;;;;;;;;;;5073841;28;20545;-80
2022/07/16 00:51:15;;;;;;;0.80;0.70;;;;;;;;;;5072958;28;20470;-80
2022/07/16 00:53:44;;;;;;;0.70;0.70;;;;;;;;;;5073021;28;20415;-81
2022/07/16 00:56:12;;;;;;;0.70;0.60;;;;;;;;;;5072738;28;20530;-79
2022/07/16 00:58:42;;;;;;;0.73;0.67;;;;;;;;;;5071014;28;20475;-81
2022/07/16 01:01:11;;;;;;;0.70;0.60;;;;;;;;;;5056252;28;20442;-81
2022/07/16 01:03:40;;;;;;;0.70;0.60;;;;;;;;;;5072665;28;20477;-80
2022/07/16 01:06:10;;;;;;;0.83;0.70;;;;;;;;;;5056705;28;20550;-81
2022/07/16 01:08:40;;;;;;;0.70;0.60;;;;;;;;;;5072611;28;20463;-80
2022/07/16 01:11:10;;;;;;;0.70;0.60;;;;;;;;;;5073236;28;20406;-80
2022/07/16 01:13:38;;;;;;;6.83;1.13;;;;;;;;;;5055295;28;20451;-80
2022/07/16 01:16:09;;;;;;;0.83;0.80;;;;;;;;;;5070128;28;20426;-79
2022/07/16 01:18:37;;;;;;;1.20;1.10;;;;;;;;;;5052846;28;20477;-80
2022/07/16 01:21:05;;;;;;;0.70;0.60;;;;;;;;;;5053121;28;20448;-81
2022/07/16 01:23:35;;;;;;;0.70;0.60;;;;;;;;;;5065465;28;20438;-82
2022/07/16 01:26:04;;;;;;;0.70;0.60;;;;;;;;;;5075752;28;20778;-81
2022/07/16 01:28:32;;;;;;;0.70;0.60;;;;;;;;;;5076003;28;20559;-81
2022/07/16 01:31:00;;;;;;;0.70;0.60;;;;;;;;;;5075138;28;20427;-80
2022/07/16 01:33:30;;;;;;;0.70;0.60;;;;;;;;;;5075285;28;20434;-81
2022/07/16 01:36:00;;;;;;;0.70;0.60;;;;;;;;;;5075660;28;20466;-80
2022/07/16 01:38:29;;;;;;;0.70;0.60;;;;;;;;;;5075447;28;20453;-79
2022/07/16 01:40:58;;;;;;;0.70;0.60;;;;;;;;;;5075794;28;20919;-81
2022/07/16 01:43:28;;;;;;;0.70;0.60;;;;;;;;;;5075822;28;20452;-82
2022/07/16 01:45:57;;;;;;;0.70;0.70;;;;;;;;;;5076167;28;20454;-81
2022/07/16 01:48:26;;;;;;;0.70;0.60;;;;;;;;;;5076001;28;20787;-79
2022/07/16 01:50:53;;;;;;;1.00;0.87;;;;;;;;;;5077337;28;20495;-80
2022/07/16 01:53:21;;;;;;;0.70;0.70;;;;;;;;;;5077398;28;20425;-81
2022/07/16 01:55:50;;;;;;;0.70;0.60;;;;;;;;;;5058989;28;20439;-79
2022/07/16 01:58:19;;;;;;;0.70;0.60;;;;;;;;;;5075211;28;20937;-81
2022/07/16 02:00:47;;;;;;;0.70;0.60;;;;;;;;;;5075735;28;20970;-81
2022/07/16 02:03:15;;;;;;;0.70;0.60;;;;;;;;;;5075321;28;20474;-79
2022/07/16 02:05:46;;;;;;;0.70;0.60;;;;;;;;;;5075815;28;20838;-81
2022/07/16 02:08:15;;;;;;;0.70;0.70;;;;;;;;;;5076728;28;20432;-81
2022/07/16 02:10:41;;;;;;;0.70;0.60;;;;;;;;;;5076357;28;20421;-80
2022/07/16 02:13:08;;;;;;;0.70;0.60;;;;;;;;;;5075619;28;20442;-81
2022/07/16 02:15:37;;;;;;;0.70;0.70;;;;;;;;;;5075795;28;20425;-80
2022/07/16 02:18:04;;;;;;;0.70;0.60;;;;;;;;;;5075347;28;20443;-80
2022/07/16 02:20:31;;;;;;;0.70;0.60;;;;;;;;;;5077460;28;20421;-80
2022/07/16 02:22:58;;;;;;;0.70;0.60;;;;;;;;;;5073039;28;20564;-80
2022/07/16 02:25:25;;;;;;;0.70;0.60;;;;;;;;;;5072554;28;21228;-80
2022/07/16 02:28:07;;;;;;;0.70;0.70;;;;;;;;;;5069110;28;20979;-80
2022/07/16 02:30:36;;;;;;;1.23;0.90;;;;;;;;;;5038189;28;20471;-81
2022/07/16 02:33:05;;;;;;;0.70;0.60;;;;;;;;;;5055722;28;20411;-79
2022/07/16 02:35:31;;;;;;;0.70;0.60;;;;;;;;;;5054088;28;20473;-81
2022/07/16 02:37:58;;;;;;;0.70;0.60;;;;;;;;;;5055045;28;20829;-80
2022/07/16 02:40:25;;;;;;;0.70;0.63;;;;;;;;;;5038268;28;20543;-80
2022/07/16 02:42:52;;;;;;;0.70;0.60;;;;;;;;;;5073570;28;20429;-78
2022/07/16 02:45:20;;;;;;;0.70;0.60;;;;;;;;;;5062612;28;20435;-80
2022/07/16 02:47:47;;;;;;;0.70;0.70;;;;;;;;;;5040638;28;20848;-81
2022/07/16 02:50:15;;;;;;;0.70;0.60;;;;;;;;;;5053910;28;20829;-80
2022/07/16 02:52:42;;;;;;;0.70;0.60;;;;;;;;;;5056991;28;20452;-80
2022/07/16 02:55:09;;;;;;;0.70;0.60;;;;;;;;;;5056265;28;20413;-81
2022/07/16 02:57:36;;;;;;;0.70;0.60;;;;;;;;;;5066800;28;20494;-81
2022/07/16 03:00:03;;;;;;;0.70;0.60;;;;;;;;;;5076075;28;20828;-81
2022/07/16 03:02:30;;;;;;;0.70;0.60;;;;;;;;;;5073865;28;20431;-80
2022/07/16 03:04:57;;;;;;;0.70;0.70;;;;;;;;;;5075437;28;20431;-81
2022/07/16 03:07:25;;;;;;;0.70;0.60;;;;;;;;;;5073373;28;20585;-81
2022/07/16 03:09:51;;;;;;;0.70;0.70;;;;;;;;;;5073407;28;20505;-82
2022/07/16 03:12:19;;;;;;;0.70;0.60;;;;;;;;;;5057772;28;20445;-81
2022/07/16 03:14:45;;;;;;;0.70;0.60;;;;;;;;;;5057550;28;20503;-79
2022/07/16 03:17:12;;;;;;;0.70;0.60;;;;;;;;;;5074688;28;21033;-82
2022/07/16 03:19:39;;;;;;;0.70;0.60;;;;;;;;;;5074003;28;20426;-81
2022/07/16 03:22:06;;;;;;;0.70;0.60;;;;;;;;;;5071907;28;20442;-80
2022/07/16 03:24:35;;;;;;;0.70;0.70;;;;;;;;;;5052611;28;20855;-81
2022/07/16 03:27:02;;;;;;;0.70;0.60;;;;;;;;;;5053309;28;20467;-80
2022/07/16 03:29:28;;;;;;;0.70;0.70;;;;;;;;;;5053623;28;21003;-80
2022/07/16 03:31:55;;;;;;;0.70;0.60;;;;;;;;;;5055105;28;20435;-81
2022/07/16 03:34:22;;;;;;;0.70;0.70;;;;;;;;;;5053475;28;20422;-81
2022/07/16 03:36:48;;;;;;;0.70;0.60;;;;;;;;;;5053863;28;20498;-82
2022/07/16 03:39:15;;;;;;;0.70;0.67;;;;;;;;;;5054435;28;20501;-82
2022/07/16 03:41:43;;;;;;;0.70;0.60;;;;;;;;;;5052487;28;20450;-82
2022/07/16 03:44:12;;;;;;;0.70;0.60;;;;;;;;;;5052821;28;20476;-82
2022/07/16 03:46:39;;;;;;;0.70;0.60;;;;;;;;;;5053317;28;20408;-81
2022/07/16 03:49:06;;;;;;;0.73;0.70;;;;;;;;;;5054477;28;22406;-83
2022/07/16 03:51:33;;;;;;;0.70;0.60;;;;;;;;;;5053263;28;20454;-82
2022/07/16 03:54:01;;;;;;;0.70;0.60;;;;;;;;;;5053141;28;20519;-81
2022/07/16 03:56:28;;;;;;;0.70;0.60;;;;;;;;;;5056990;28;20457;-81
2022/07/16 03:58:56;;;;;;;0.70;0.60;;;;;;;;;;5071484;28;20479;-81
2022/07/16 04:01:23;;;;;;;0.70;0.70;;;;;;;;;;5072175;28;20474;-82
2022/07/16 04:03:50;;;;;;;0.70;0.60;;;;;;;;;;5072783;28;20469;-83
2022/07/16 04:06:17;;;;;;;0.70;0.70;;;;;;;;;;5072350;28;20465;-81
2022/07/16 04:08:44;;;;;;;0.70;0.70;;;;;;;;;;5072985;28;20845;-80
2022/07/16 04:11:11;;;;;;;0.70;0.60;;;;;;;;;;5074096;28;20981;-80
2022/07/16 04:13:39;;;;;;;0.70;0.60;;;;;;;;;;5056703;28;20776;-81
2022/07/16 04:16:07;;;;;;;0.70;0.60;;;;;;;;;;5072348;28;20448;-82
2022/07/16 04:18:35;;;;;;;0.70;0.60;;;;;;;;;;5069992;28;20772;-82
2022/07/16 04:21:02;;;;;;;0.70;0.60;;;;;;;;;;5056688;28;20497;-81
2022/07/16 04:23:29;;;;;;;1.00;0.90;;;;;;;;;;5061925;28;20440;-81
2022/07/16 04:25:55;;;;;;;1.33;1.13;;;;;;;;;;5072776;28;20443;-82
2022/07/16 04:28:22;;;;;;;1.23;0.90;;;;;;;;;;5073520;28;20512;-82
2022/07/16 04:30:49;;;;;;;0.93;0.90;;;;;;;;;;5055859;28;20459;-83
2022/07/16 04:33:18;;;;;;;1.23;1.13;;;;;;;;;;5055057;28;21166;-82
2022/07/16 04:35:45;;;;;;;0.70;0.70;;;;;;;;;;5054419;28;20474;-82
2022/07/16 04:38:13;;;;;;;0.70;0.70;;;;;;;;;;5071197;28;20878;-81
2022/07/16 04:40:39;;;;;;;0.70;0.60;;;;;;;;;;5073161;28;20498;-82
2022/07/16 04:43:06;;;;;;;0.70;0.63;;;;;;;;;;5073996;28;20426;-83
2022/07/16 04:45:33;;;;;;;0.70;0.60;;;;;;;;;;5067852;28;20465;-82
2022/07/16 04:48:00;;;;;;;0.70;0.70;;;;;;;;;;5052496;28;20417;-83
2022/07/16 04:50:28;;;;;;;0.70;0.60;;;;;;;;;;5053242;28;20464;-84
2022/07/16 04:52:55;;;;;;;0.80;0.70;;;;;;;;;;5055360;28;21015;-83
2022/07/16 04:55:22;;;;;;;0.70;0.60;;;;;;;;;;5051711;28;20428;-83
2022/07/16 04:57:49;;;;;;;1.43;1.33;;;;;;;;;;5065399;28;20882;-83
2022/07/16 05:00:23;;;;;;;0.80;0.73;;;;;;;;;;5071946;28;20441;-83
2022/07/16 05:02:56;;;;;;;0.80;0.70;;;;;;;;;;5055208;28;20517;-83
2022/07/16 05:05:23;;;;;;;0.80;0.80;;;;;;;;;;5073605;28;20407;-82
2022/07/16 05:07:51;;;;;;;0.70;0.60;;;;;;;;;;5072099;28;20434;-82
2022/07/16 05:10:18;;;;;;;0.70;0.60;;;;;;;;;;5073011;28;20459;-83
2022/07/16 05:12:45;;;;;;;0.70;0.60;;;;;;;;;;5072226;28;20433;-81
2022/07/16 05:15:12;;;;;;;0.70;0.60;;;;;;;;;;5072200;28;20425;-79
2022/07/16 05:17:38;;;;;;;0.70;0.70;;;;;;;;;;5054974;28;20991;-83
2022/07/16 05:20:06;;;;;;;0.70;0.70;;;;;;;;;;5073013;28;20466;-83
2022/07/16 05:22:33;;;;;;;0.70;0.60;;;;;;;;;;5073437;28;20457;-82
2022/07/16 05:25:01;;;;;;;0.80;0.70;;;;;;;;;;5074535;28;21046;-82
2022/07/16 05:27:28;;;;;;;0.70;0.70;;;;;;;;;;5072763;28;20435;-82
2022/07/16 05:29:55;;;;;;;0.77;0.70;;;;;;;;;;5056786;28;20463;-81
2022/07/16 05:32:21;;;;;;;0.70;0.60;;;;;;;;;;5071969;28;20830;-83
2022/07/16 05:34:49;;;;;;;0.70;0.60;;;;;;;;;;5071141;28;20449;-84
2022/07/16 05:37:15;;;;;;;0.80;0.80;;;;;;;;;;5054565;28;20556;-84
2022/07/16 05:39:42;;;;;;;0.77;0.70;;;;;;;;;;5071966;28;20903;-84
2022/07/16 05:42:11;;;;;;;0.87;0.87;;;;;;;;;;5072331;28;20428;-84
2022/07/16 05:44:38;;;;;;;0.80;0.70;;;;;;;;;;5073049;28;20434;-83
2022/07/16 05:47:05;;;;;;;0.70;0.70;;;;;;;;;;5071076;28;20433;-83
2022/07/16 05:49:32;;;;;;;0.70;0.70;;;;;;;;;;5072049;28;20903;-82
2022/07/16 05:52:07;;;;;;;0.90;0.70;;;;;;;;;;5072472;28;20447;-83
2022/07/16 05:54:34;;;;;;;0.70;0.70;;;;;;;;;;5071518;28;20486;-83
2022/07/16 05:57:01;;;;;;;0.80;0.80;;;;;;;;;;5072649;28;20433;-83
2022/07/16 05:59:29;;;;;;;0.70;0.60;;;;;;;;;;5071663;28;20453;-82
2022/07/16 06:01:56;;;;;;;0.87;0.80;;;;;;;;;;5073175;28;20418;-83
2022/07/16 06:04:23;;;;;;;0.80;0.70;;;;;;;;;;5072502;28;20479;-83
2022/07/16 06:06:50;;;;;;;0.70;0.70;;;;;;;;;;5071906;28;20556;-81
2022/07/16 06:09:17;;;;;;;1.10;1.00;;;;;;;;;;5069919;28;20540;-83
2022/07/16 06:11:44;;;;;;;0.80;0.70;;;;;;;;;;5076392;28;20478;-81
2022/07/16 06:14:11;;;;;;;0.70;0.60;;;;;;;;;;5070755;28;20473;-84
2022/07/16 06:16:40;;;;;;;0.80;0.73;;;;;;;;;;5054300;28;20463;-81
2022/07/16 06:19:07;;;;;;;0.80;0.70;;;;;;;;;;5064138;28;20550;-83
2022/07/16 06:21:34;;;;;;;0.80;0.80;;;;;;;;;;5055195;28;20451;-82
2022/07/16 06:24:00;;;;;;;0.73;0.70;;;;;;;;;;5058245;28;20518;-83
2022/07/16 06:26:27;;;;;;;0.80;0.80;;;;;;;;;;5040840;28;20764;-83
2022/07/16 06:28:54;;;;;;;0.80;0.70;;;;;;;;;;5060403;28;21024;-83
2022/07/16 06:31:21;;;;;;;0.80;0.70;;;;;;;;;;5055789;28;20999;-81
2022/07/16 06:33:49;;;;;;;1.00;0.90;;;;;;;;;;5062982;28;20425;-83
2022/07/16 06:36:16;;;;;;;0.70;0.60;;;;;;;;;;5038989;28;20467;-84
2022/07/16 06:38:43;;;;;;;0.80;0.70;;;;;;;;;;5054526;28;20482;-83
2022/07/16 06:41:09;;;;;;;0.73;0.70;;;;;;;;;;5056934;28;20797;-83
2022/07/16 06:43:42;;;;;;;0.70;0.67;;;;;;;;;;5067171;28;20839;-81
2022/07/16 06:46:08;;;;;;;0.80;0.70;;;;;;;;;;5036721;28;20440;-80
2022/07/16 06:48:39;;;;;;;0.70;0.70;;;;;;;;;;5059899;28;20450;-80
2022/07/16 06:51:07;;;;;;;0.70;0.70;;;;;;;;;;5059048;28;20877;-81
2022/07/16 06:53:34;;;;;;;0.70;0.70;;;;;;;;;;5074165;28;20456;-81
2022/07/16 06:56:02;;;;;;;0.70;0.60;;;;;;;;;;5041636;28;20442;-82
2022/07/16 06:58:29;;;;;;;0.80;0.80;;;;;;;;;;5059905;28;20924;-83
2022/07/16 07:00:56;;;;;;;2.60;2.40;;;;;;;;;;5055371;28;20771;-81
2022/07/16 07:03:23;;;;;;;0.70;0.70;;;;;;;;;;5053402;28;20471;-79
2022/07/16 07:05:50;;;;;;;0.80;0.80;;;;;;;;;;5052882;28;20543;-81
2022/07/16 07:08:18;;;;;;;0.80;0.70;;;;;;;;;;5064168;28;20496;-81
2022/07/16 07:10:46;;;;;;;0.80;0.70;;;;;;;;;;5069599;28;20461;-83
2022/07/16 07:13:12;;;;;;;1.23;1.13;;;;;;;;;;5059409;28;20485;-83
2022/07/16 07:15:40;;;;;;;0.70;0.67;;;;;;;;;;5065223;28;20907;-81
2022/07/16 07:18:06;;;;;;;0.70;0.70;;;;;;;;;;5077699;28;20441;-80
2022/07/16 07:20:34;;;;;;;0.80;0.80;;;;;;;;;;5069951;28;20496;-81
2022/07/16 07:23:01;;;;;;;0.80;0.70;;;;;;;;;;5073229;28;20797;-81
2022/07/16 07:25:29;;;;;;;0.80;0.70;;;;;;;;;;5065966;28;20447;-82
2022/07/16 07:27:56;;;;;;;0.70;0.60;;;;;;;;;;5070865;28;21017;-81
2022/07/16 07:30:22;;;;;;;1.10;1.00;;;;;;;;;;5060613;28;20464;-82
2022/07/16 07:32:49;;;;;;;0.80;0.70;;;;;;;;;;5068442;28;20435;-82
2022/07/16 07:35:17;;;;;;;0.80;0.80;;;;;;;;;;5056705;28;20802;-82
2022/07/16 07:37:43;;;;;;;1.23;1.07;;;;;;;;;;5056002;28;20445;-82
2022/07/16 07:40:10;;;;;;;0.80;0.80;;;;;;;;;;5055105;28;20447;-82
2022/07/16 07:42:39;;;;;;;0.80;0.70;;;;;;;;;;5053347;28;20472;-81
2022/07/16 07:45:06;;;;;;;0.73;0.60;;;;;;;;;;5055117;28;20482;-83
2022/07/16 07:47:34;;;;;;;0.70;0.60;;;;;;;;;;5054603;28;20440;-83
2022/07/16 07:50:04;;;;;;;0.80;0.60;;;;;;;;;;5053935;28;20435;-84
2022/07/16 07:52:30;;;;;;;0.80;0.80;;;;;;;;;;5054248;28;20885;-81
2022/07/16 07:54:57;;;;;;;0.80;0.80;;;;;;;;;;5054857;28;20920;-82
2022/07/16 07:57:24;;;;;;;0.80;0.70;;;;;;;;;;5063793;28;20435;-80
2022/07/16 07:59:52;;;;;;;2.60;0.90;;;;;;;;;;5073593;28;20941;-82
2022/07/16 08:02:19;;;;;;;1.00;0.90;;;;;;;;;;5063981;28;20436;-80
2022/07/16 08:04:46;;;;;;;0.80;0.60;;;;;;;;;;5054180;28;20443;-81
2022/07/16 08:07:13;;;;;;;0.80;0.70;;;;;;;;;;5055181;28;20495;-81
2022/07/16 08:09:40;;;;;;;1.00;0.90;;;;;;;;;;5060496;28;20926;-80
2022/07/16 08:12:07;;;;;;;0.70;0.60;;;;;;;;;;5057835;28;20492;-80
2022/07/16 08:14:34;;;;;;;0.93;0.83;;;;;;;;;;5068196;28;20427;-80
2022/07/16 08:17:03;;;;;;;0.70;0.60;;;;;;;;;;5075078;28;20442;-81
2022/07/16 08:19:31;;;;;;;0.80;0.70;;;;;;;;;;5075334;28;20447;-81
2022/07/16 08:21:58;;;;;;;0.80;0.70;;;;;;;;;;5075510;28;20432;-81
2022/07/16 08:27:11;;;;;;;1.50;1.40;;;;;;;;;;5078026;28;20453;-80
2022/07/16 08:29:38;;;;;;;0.70;0.70;;;;;;;;;;5074353;28;20981;-79
2022/07/16 08:32:07;;;;;;;0.90;0.70;;;;;;;;;;5074279;28;20462;-79
2022/07/16 08:34:36;;;;;;;5.53;2.60;;;;;;;;;;5064555;28;20538;-80
2022/07/16 08:37:05;;;;;;;0.73;0.63;;;;;;;;;;5054622;28;20495;-80
2022/07/16 08:39:32;;;;;;;1.20;1.10;;;;;;;;;;5072029;28;20998;-77
2022/07/16 08:41:59;;;;;;;1.00;0.80;;;;;;;;;;5057838;28;20453;-81
2022/07/16 08:44:27;;;;;;;0.80;0.70;;;;;;;;;;5075916;28;20868;-81
2022/07/16 08:46:54;;;;;;;0.80;0.70;;;;;;;;;;5052350;28;20546;-80
2022/07/16 08:49:24;;;;;;;0.80;0.70;;;;;;;;;;5065598;28;20497;-80
2022/07/16 08:51:52;;;;;;;0.70;0.70;;;;;;;;;;5054596;28;20479;-80
2022/07/16 08:54:19;;;;;;;1.47;1.37;;;;;;;;;;5059367;28;20436;-80
2022/07/16 08:56:46;;;;;;;1.93;1.83;;;;;;;;;;5067382;28;20488;-79
2022/07/16 08:59:13;;;;;;;0.80;0.80;;;;;;;;;;5077367;28;20518;-80
2022/07/16 09:01:40;;;;;;;0.80;0.77;;;;;;;;;;5079122;28;20463;-80
2022/07/16 09:04:08;;;;;;;0.80;0.70;;;;;;;;;;5055210;28;20806;-79
2022/07/16 09:06:37;;;;;;;0.80;0.70;;;;;;;;;;5068098;28;20473;-77
2022/07/16 09:09:03;;;;;;;0.80;0.70;;;;;;;;;;5066464;28;20457;-80
2022/07/16 09:11:31;;;;;;;0.80;0.70;;;;;;;;;;5072400;28;20471;-80
2022/07/16 09:13:59;;;;;;;0.80;0.70;;;;;;;;;;5065662;28;20435;-81
2022/07/16 09:16:29;;;;;;;0.87;0.80;;;;;;;;;;5067168;28;20425;-79
2022/07/16 09:19:06;;;;;;;0.80;0.70;;;;;;;;;;5064905;28;20474;-79
2022/07/16 09:21:33;;;;;;;0.70;0.60;;;;;;;;;;5069692;28;20447;-81
2022/07/16 09:24:01;;;;;;;0.80;0.70;;;;;;;;;;5056191;28;20444;-78
2022/07/16 09:26:28;;;;;;;0.80;0.70;;;;;;;;;;5055482;28;20738;-79
2022/07/16 09:29:04;;;;;;;0.70;0.60;;;;;;;;;;5073971;28;20725;-78
2022/07/16 09:31:32;;;;;;;0.80;0.60;;;;;;;;;;5050503;28;20475;-77
2022/07/16 09:34:00;;;;;;;0.80;0.70;;;;;;;;;;5046799;28;20482;-79
2022/07/16 09:36:27;;;;;;;0.70;0.60;;;;;;;;;;5071277;28;20455;-79
2022/07/16 09:38:55;;;;;;;0.90;0.90;;;;;;;;;;5071315;28;20533;-78
2022/07/16 09:41:23;;;;;;;0.80;0.70;;;;;;;;;;5071865;28;20427;-79
2022/07/16 09:43:50;;;;;;;0.80;0.70;;;;;;;;;;5070560;28;20419;-79
2022/07/16 09:46:18;;;;;;;1.17;0.80;;;;;;;;;;5075560;28;20405;-79
2022/07/16 09:48:45;;;;;;;1.10;1.00;;;;;;;;;;5076195;28;20398;-78
2022/07/16 09:51:14;;;;;;;0.80;0.70;;;;;;;;;;5075808;28;20441;-80
2022/07/16 09:53:43;;;;;;;0.80;0.60;;;;;;;;;;5075333;28;20394;-80
2022/07/16 09:56:13;;;;;;;0.70;0.70;;;;;;;;;;5076515;28;20818;-78
2022/07/16 09:58:46;;;;;;;0.80;0.80;;;;;;;;;;5056554;28;20519;-78
2022/07/16 10:01:14;;;;;;;0.70;0.60;;;;;;;;;;5056747;28;20404;-78
2022/07/16 10:03:41;;;;;;;0.70;0.60;;;;;;;;;;5062853;28;20519;-78
2022/07/16 10:06:11;;;;;;;0.73;0.60;;;;;;;;;;5075960;28;20966;-79
2022/07/16 10:08:39;;;;;;;0.70;0.60;;;;;;;;;;5069633;28;20450;-79
2022/07/16 10:11:06;;;;;;;0.80;0.67;;;;;;;;;;5074391;28;21086;-76
2022/07/16 10:13:34;;;;;;;2.07;1.27;;;;;;;;;;5076132;28;20927;-78
2022/07/16 10:16:02;;;;;;;0.80;0.60;;;;;;;;;;5075639;28;20414;-79
2022/07/16 10:18:30;;;;;;;0.70;0.60;;;;;;;;;;5077026;28;20423;-78
2022/07/16 10:21:01;;;;;;;0.90;0.80;;;;;;;;;;5076219;28;20469;-78
2022/07/16 10:23:28;;;;;;;0.70;0.60;;;;;;;;;;5076123;28;20927;-78
2022/07/16 10:25:57;;;;;;;0.70;0.60;;;;;;;;;;5075625;28;20478;-79
2022/07/16 10:28:38;;;;;;;0.77;0.60;;;;;;;;;;5074898;28;20454;-78
2022/07/16 10:31:28;;;;;;;0.70;0.60;;;;;;;;;;5075725;28;20433;-79
2022/07/16 10:34:10;;;;;;;0.80;0.60;;;;;;;;;;5063387;28;20424;-79
2022/07/16 10:36:45;;;;;;;0.77;0.70;;;;;;;;;;5053662;28;20474;-78
2022/07/16 10:39:15;;;;;;;0.70;0.60;;;;;;;;;;5037319;28;20443;-80
2022/07/16 10:41:49;;;;;;;0.80;0.60;;;;;;;;;;5055052;28;20420;-79
2022/07/16 10:44:17;;;;;;;0.70;0.50;;;;;;;;;;5055203;28;20516;-78
2022/07/16 10:46:50;;;;;;;0.70;0.60;;;;;;;;;;5053413;28;20454;-78
2022/07/16 10:49:17;;;;;;;0.70;0.60;;;;;;;;;;5061139;28;20431;-79
2022/07/16 10:51:56;;;;;;;0.70;0.50;;;;;;;;;;5072271;28;20467;-78
2022/07/16 10:54:25;;;;;;;0.70;0.57;;;;;;;;;;5074648;28;20598;-78
2022/07/16 10:56:52;;;;;;;0.97;0.87;;;;;;;;;;5075481;28;20919;-79
2022/07/16 10:59:19;;;;;;;0.70;0.60;;;;;;;;;;5075061;28;20936;-79
2022/07/16 11:01:48;;;;;;;0.70;0.53;;;;;;;;;;5075629;28;20427;-79
2022/07/16 11:04:15;;;;;;;0.70;0.50;;;;;;;;;;5073654;28;20431;-79
2022/07/16 11:06:48;;;;;;;0.70;0.60;;;;;;;;;;5058165;28;20569;-77
2022/07/16 11:09:22;;;;;;;0.70;0.60;;;;;;;;;;5058453;28;20455;-79
2022/07/16 11:11:50;;;;;;;0.73;0.60;;;;;;;;;;5074014;28;20450;-77
2022/07/16 11:14:17;;;;;;;0.70;0.50;;;;;;;;;;5075990;28;20432;-78
2022/07/16 11:16:48;;;;;;;0.80;0.60;;;;;;;;;;5074807;28;20478;-77
2022/07/16 11:19:16;;;;;;;0.70;0.50;;;;;;;;;;5075765;28;20415;-78
2022/07/16 11:21:51;;;;;;;0.80;0.60;;;;;;;;;;5074952;28;20451;-78
2022/07/16 11:24:19;;;;;;;0.80;0.60;;;;;;;;;;5074383;28;20485;-77
2022/07/16 11:26:46;;;;;;;0.70;0.60;;;;;;;;;;5075950;28;20431;-78
2022/07/16 11:29:13;;;;;;;0.70;0.60;;;;;;;;;;5072475;28;20427;-77
2022/07/16 11:31:40;;;;;;;0.73;0.60;;;;;;;;;;5056754;28;20836;-77
2022/07/16 11:34:10;;;;;;;0.70;0.50;;;;;;;;;;5062368;28;20455;-78
2022/07/16 11:36:37;;;;;;;0.70;0.60;;;;;;;;;;5054146;28;20454;-78
2022/07/16 11:39:07;;;;;;;0.70;0.60;;;;;;;;;;5054616;28;20787;-77
2022/07/16 11:41:35;;;;;;;0.70;0.50;;;;;;;;;;5055232;28;20411;-78
2022/07/16 11:44:10;;;;;;;0.70;0.53;;;;;;;;;;5054052;28;20420;-78
2022/07/16 11:46:41;;;;;;;0.70;0.60;;;;;;;;;;5054236;28;20489;-79
2022/07/16 11:49:10;;;;;;;0.70;0.60;;;;;;;;;;5053377;28;20490;-79
2022/07/16 11:51:40;;;;;;;0.77;0.60;;;;;;;;;;5052614;28;21083;-78
2022/07/16 11:54:08;;;;;;;1.43;1.33;;;;;;;;;;5058157;28;20437;-79
2022/07/16 11:56:37;;;;;;;0.70;0.50;;;;;;;;;;5074685;28;20978;-79
2022/07/16 11:59:14;;;;;;;0.70;0.60;;;;;;;;;;5068276;28;20505;-78
2022/07/16 12:01:42;;;;;;;0.70;0.60;;;;;;;;;;5054045;28;20435;-78
2022/07/16 12:04:08;;;;;;;0.80;0.70;;;;;;;;;;5062047;28;20959;-76
2022/07/16 12:06:35;;;;;;;1.00;0.90;;;;;;;;;;5074306;28;20443;-79
2022/07/16 12:09:03;;;;;;;0.70;0.60;;;;;;;;;;5074046;28;20431;-78
2022/07/16 12:11:30;;;;;;;0.70;0.60;;;;;;;;;;5072908;28;20533;-80
2022/07/16 12:13:59;;;;;;;0.70;0.60;;;;;;;;;;5056873;28;20441;-79
2022/07/16 12:16:27;;;;;;;0.70;0.60;;;;;;;;;;5071734;28;20441;-76
2022/07/16 12:18:58;;;;;;;0.70;0.60;;;;;;;;;;5053419;28;20447;-77
2022/07/16 12:21:26;;;;;;;0.70;0.60;;;;;;;;;;5069300;28;20546;-77
2022/07/16 12:23:53;;;;;;;0.70;0.60;;;;;;;;;;5052977;28;20413;-77
2022/07/16 12:26:26;;;;;;;0.70;0.70;;;;;;;;;;5053132;28;20482;-77
2022/07/16 12:28:55;;;;;;;0.80;0.73;;;;;;;;;;5073319;28;20419;-77
2022/07/16 12:31:27;;;;;;;0.70;0.60;;;;;;;;;;5070125;28;20440;-78
2022/07/16 12:33:54;;;;;;;0.70;0.60;;;;;;;;;;5054379;28;20463;-78
2022/07/16 12:36:28;;;;;;;0.80;0.70;;;;;;;;;;5051801;28;20455;-77
2022/07/16 12:38:58;;;;;;;0.70;0.60;;;;;;;;;;5054509;28;20451;-76
2022/07/16 12:41:27;;;;;;;1.07;0.97;;;;;;;;;;5053231;28;20436;-77
2022/07/16 12:43:55;;;;;;;0.70;0.60;;;;;;;;;;5052772;28;20448;-77
2022/07/16 12:46:23;;;;;;;0.70;0.60;;;;;;;;;;5054210;28;20416;-76
2022/07/16 12:48:53;;;;;;;0.70;0.60;;;;;;;;;;5053783;28;20419;-76
2022/07/16 12:51:22;;;;;;;0.70;0.60;;;;;;;;;;5049823;28;20550;-77
2022/07/16 12:53:49;;;;;;;1.10;1.00;;;;;;;;;;5071478;28;20455;-77
2022/07/16 12:59:03;;;;;;;0.70;0.60;;;;;;;;;;5059060;28;20443;-75
2022/07/16 13:01:31;;;;;;;0.70;0.60;;;;;;;;;;5057158;28;20526;-78
2022/07/16 13:04:00;;;;;;;0.70;0.60;;;;;;;;;;5073900;28;20465;-76
2022/07/16 13:06:27;;;;;;;0.70;0.50;;;;;;;;;;5073906;28;20459;-77
2022/07/16 13:08:54;;;;;;;0.70;0.60;;;;;;;;;;5072837;28;20442;-77
2022/07/16 13:11:22;;;;;;;0.80;0.70;;;;;;;;;;5074330;28;20469;-77
2022/07/16 13:13:50;;;;;;;0.80;0.60;;;;;;;;;;5073722;28;20464;-77
2022/07/16 13:16:22;;;;;;;0.70;0.50;;;;;;;;;;5072909;28;20835;-77
2022/07/16 13:18:50;;;;;;;0.70;0.60;;;;;;;;;;5074318;28;20419;-77
2022/07/16 13:21:19;;;;;;;0.70;0.53;;;;;;;;;;5055605;28;20554;-78
2022/07/16 13:23:46;;;;;;;0.70;0.50;;;;;;;;;;5073455;28;20832;-78
2022/07/16 13:26:13;;;;;;;0.70;0.50;;;;;;;;;;5072627;28;20424;-81
2022/07/16 13:28:40;;;;;;;0.80;0.50;;;;;;;;;;5073807;28;20426;-79
2022/07/16 13:31:07;;;;;;;0.80;0.50;;;;;;;;;;5072499;28;20446;-79
2022/07/16 13:33:34;;;;;;;0.70;0.50;;;;;;;;;;5054185;28;20478;-79
2022/07/16 13:36:01;;;;;;;0.70;0.60;;;;;;;;;;5056881;28;20959;-78
2022/07/16 13:38:30;;;;;;;0.90;0.80;;;;;;;;;;5072393;28;20439;-78
2022/07/16 13:40:57;;;;;;;0.80;0.70;;;;;;;;;;5072606;28;20834;-78
2022/07/16 13:43:24;;;;;;;0.70;0.50;;;;;;;;;;5056104;28;20493;-78
2022/07/16 13:45:50;;;;;;;0.70;0.50;;;;;;;;;;5055612;28;20492;-77
2022/07/16 13:48:17;;;;;;;0.90;0.80;;;;;;;;;;5071666;28;20492;-78
2022/07/16 13:50:47;;;;;;;0.70;0.60;;;;;;;;;;5072787;28;20443;-78
2022/07/16 13:53:13;;;;;;;0.70;0.50;;;;;;;;;;5055676;28;20463;-76
2022/07/16 13:55:42;;;;;;;0.70;0.50;;;;;;;;;;5062152;28;20436;-77
2022/07/16 13:58:18;;;;;;;0.70;0.50;;;;;;;;;;5063095;28;20435;-78
2022/07/16 14:00:47;;;;;;;1.23;0.80;;;;;;;;;;5065685;28;20457;-78
2022/07/16 14:03:14;;;;;;;0.80;0.50;;;;;;;;;;5052744;28;20451;-78
2022/07/16 14:05:41;;;;;;;0.80;0.50;;;;;;;;;;5052984;28;20443;-75
2022/07/16 14:08:09;;;;;;;0.77;0.50;;;;;;;;;;5053853;28;20432;-78
2022/07/16 14:10:36;;;;;;;0.80;0.50;;;;;;;;;;5054347;28;20413;-78
2022/07/16 14:13:07;;;;;;;0.80;0.50;;;;;;;;;;5062622;28;20454;-78
2022/07/16 14:15:35;;;;;;;3.70;0.70;;;;;;;;;;5073389;28;20950;-78
2022/07/16 14:18:03;;;;;;;0.80;0.50;;;;;;;;;;5072676;28;20415;-77
2022/07/16 14:20:31;;;;;;;1.47;0.80;;;;;;;;;;5070962;28;20536;-77
2022/07/16 14:22:58;;;;;;;0.77;0.60;;;;;;;;;;5072823;28;20419;-78
2022/07/16 14:25:25;;;;;;;0.70;0.60;;;;;;;;;;5073191;28;20525;-76
2022/07/16 14:27:52;;;;;;;0.70;0.50;;;;;;;;;;5072973;28;20431;-77
2022/07/16 14:30:21;;;;;;;0.70;0.50;;;;;;;;;;5073988;28;20855;-77
2022/07/16 14:32:48;;;;;;;0.70;0.60;;;;;;;;;;5058601;28;20552;-76
2022/07/16 14:35:15;;;;;;;0.80;0.60;;;;;;;;;;5075724;28;20435;-77
2022/07/16 14:37:43;;;;;;;0.80;0.50;;;;;;;;;;5075516;28;20459;-76
2022/07/16 14:40:11;;;;;;;0.70;0.57;;;;;;;;;;5076785;28;20430;-77
2022/07/16 14:42:38;;;;;;;1.17;0.80;;;;;;;;;;5077738;28;20411;-77
2022/07/16 14:45:06;;;;;;;0.80;0.50;;;;;;;;;;5075553;28;20414;-76
2022/07/16 14:47:34;;;;;;;0.80;0.60;;;;;;;;;;5074221;28;20423;-78
2022/07/16 14:50:03;;;;;;;0.80;0.50;;;;;;;;;;5074845;28;20931;-76
2022/07/16 14:52:31;;;;;;;0.80;0.50;;;;;;;;;;5058617;28;20459;-76
2022/07/16 14:54:57;;;;;;;0.80;0.60;;;;;;;;;;5076416;28;20462;-76